createdAt,value
2022-12-11T00:00:27.739Z,1.30
2022-12-11T00:02:54.829Z,1.30
2022-12-11T00:05:22.568Z,1.30
2022-12-11T00:07:49.734Z,1.30
2022-12-11T00:10:17.127Z,1.40
2022-12-11T00:12:43.965Z,1.40
2022-12-11T00:15:13.936Z,1.40
2022-12-11T00:17:40.887Z,1.40
2022-12-11T00:20:10.474Z,1.40
2022-12-11T00:22:37.908Z,1.40
2022-12-11T00:25:05.756Z,1.40
2022-12-11T00:27:32.703Z,1.40
2022-12-11T00:29:59.585Z,1.40
2022-12-11T00:32:28.438Z,1.40
2022-12-11T00:34:55.564Z,1.40
2022-12-11T00:37:23.801Z,1.40
2022-12-11T00:39:51.492Z,1.40
2022-12-11T00:42:18.412Z,1.40
2022-12-11T00:44:45.383Z,1.40
2022-12-11T00:47:15.258Z,1.40
2022-12-11T00:49:49.412Z,1.40
2022-12-11T00:52:18.138Z,1.40
2022-12-11T00:54:45.605Z,1.50
2022-12-11T00:57:12.516Z,1.50
2022-12-11T00:59:41.008Z,1.50
2022-12-11T01:02:07.771Z,1.50
2022-12-11T01:04:36.865Z,1.50
2022-12-11T01:07:03.824Z,1.60
2022-12-11T01:09:49.451Z,1.50
2022-12-11T01:12:16.316Z,1.60
2022-12-11T01:14:43.527Z,1.50
2022-12-11T01:17:11.224Z,1.60
2022-12-11T01:19:38.092Z,1.50
2022-12-11T01:22:04.928Z,1.50
2022-12-11T01:24:31.783Z,1.60
2022-12-11T01:26:58.637Z,1.60
2022-12-11T01:29:25.533Z,1.60
2022-12-11T01:31:52.327Z,1.60
2022-12-11T01:34:19.157Z,1.60
2022-12-11T01:36:45.983Z,1.60
2022-12-11T01:39:12.971Z,1.60
2022-12-11T01:41:39.985Z,1.60
2022-12-11T01:44:15.932Z,1.60
2022-12-11T01:46:43.456Z,1.60
2022-12-11T01:49:14.003Z,1.70
2022-12-11T01:52:07.183Z,1.70
2022-12-11T01:54:35.210Z,1.70
2022-12-11T01:57:06.649Z,1.70
2022-12-11T01:59:35.496Z,1.70
2022-12-11T02:02:11.380Z,1.70
2022-12-11T02:04:40.156Z,1.70
2022-12-11T02:07:07.029Z,1.70
2022-12-11T02:09:36.651Z,1.70
2022-12-11T02:12:35.020Z,1.70
2022-12-11T02:15:29.789Z,1.80
2022-12-11T02:18:21.248Z,1.80
2022-12-11T02:20:57.151Z,1.80
2022-12-11T02:23:41.198Z,1.80
2022-12-11T02:26:26.745Z,1.80
2022-12-11T02:29:00.297Z,1.80
2022-12-11T02:31:34.553Z,1.80
2022-12-11T02:34:03.602Z,1.80
2022-12-11T02:36:40.380Z,1.80
2022-12-11T02:39:11.129Z,1.80
2022-12-11T02:41:44.186Z,1.80
2022-12-11T02:44:14.020Z,1.80
2022-12-11T02:46:42.939Z,1.80
2022-12-11T02:49:12.554Z,1.90
2022-12-11T02:51:44.364Z,1.90
2022-12-11T02:54:17.907Z,1.90
2022-12-11T02:57:05.106Z,1.90
2022-12-11T02:59:44.328Z,1.90
2022-12-11T03:02:17.643Z,1.90
2022-12-11T03:04:47.629Z,1.90
2022-12-11T03:07:18.897Z,1.90
2022-12-11T03:09:48.766Z,1.90
2022-12-11T03:12:21.090Z,1.90
2022-12-11T03:14:51.206Z,1.90
2022-12-11T03:17:25.532Z,1.90
2022-12-11T03:20:14.286Z,1.90
2022-12-11T03:22:50.029Z,1.90
2022-12-11T03:25:22.187Z,1.90
2022-12-11T03:28:00.637Z,1.90
2022-12-11T03:30:29.050Z,2.00
2022-12-11T03:33:04.744Z,2.00
2022-12-11T03:35:52.543Z,1.90
2022-12-11T03:38:29.970Z,1.90
2022-12-11T03:41:00.950Z,2.00
2022-12-11T03:43:30.083Z,2.00
2022-12-11T03:45:59.120Z,2.00
2022-12-11T03:48:30.966Z,2.00
2022-12-11T03:51:02.029Z,2.00
2022-12-11T03:53:32.384Z,2.00
2022-12-11T03:56:00.690Z,2.00
2022-12-11T03:58:27.557Z,2.00
2022-12-11T04:00:54.444Z,2.00
2022-12-11T04:03:25.954Z,2.00
2022-12-11T04:05:53.210Z,2.00
2022-12-11T04:08:21.563Z,2.00
2022-12-11T04:11:09.523Z,2.00
2022-12-11T04:13:36.963Z,2.00
2022-12-11T04:16:04.359Z,1.90
2022-12-11T04:18:49.575Z,2.00
2022-12-11T04:21:39.652Z,1.90
2022-12-11T04:24:16.289Z,1.90
2022-12-11T04:26:45.073Z,1.90
2022-12-11T04:29:12.190Z,1.90
2022-12-11T04:31:39.444Z,1.90
2022-12-11T04:34:06.655Z,1.90
2022-12-11T04:36:33.699Z,2.00
2022-12-11T04:39:00.525Z,1.90
2022-12-11T04:41:27.620Z,1.90
2022-12-11T04:43:54.677Z,1.90
2022-12-11T04:46:24.501Z,1.90
2022-12-11T04:48:57.339Z,1.90
2022-12-11T04:51:25.396Z,1.90
2022-12-11T04:53:54.396Z,1.90
2022-12-11T04:56:22.547Z,1.90
2022-12-11T04:58:49.429Z,1.90
2022-12-11T05:01:18.981Z,1.90
2022-12-11T05:03:47.197Z,1.90
2022-12-11T05:06:14.542Z,1.90
2022-12-11T05:08:45.375Z,1.90
2022-12-11T05:11:14.820Z,1.90
2022-12-11T05:13:42.311Z,1.90
2022-12-11T05:16:11.537Z,1.90
2022-12-11T05:18:38.748Z,1.90
2022-12-11T05:21:08.684Z,1.90
2022-12-11T05:23:35.872Z,1.90
2022-12-11T05:26:07.865Z,1.90
2022-12-11T05:28:37.087Z,1.90
2022-12-11T05:31:12.317Z,1.90
2022-12-11T05:33:39.470Z,1.90
2022-12-11T05:36:07.574Z,1.90
2022-12-11T05:38:34.831Z,1.90
2022-12-11T05:41:04.047Z,1.90
2022-12-11T05:43:33.453Z,1.90
2022-12-11T05:46:17.046Z,1.80
2022-12-11T05:48:46.253Z,1.80
2022-12-11T05:51:14.434Z,1.80
2022-12-11T05:53:43.118Z,1.80
2022-12-11T05:56:26.705Z,1.80
2022-12-11T05:58:54.347Z,1.80
2022-12-11T06:01:42.417Z,1.80
2022-12-11T06:04:11.237Z,1.80
2022-12-11T06:06:40.415Z,1.80
2022-12-11T06:09:07.576Z,1.80
2022-12-11T06:11:35.296Z,1.80
2022-12-11T06:14:03.274Z,1.80
2022-12-11T06:16:30.173Z,1.80
2022-12-11T06:18:58.451Z,1.80
2022-12-11T06:21:32.001Z,1.80
2022-12-11T06:24:01.686Z,1.70
2022-12-11T06:26:29.308Z,1.70
2022-12-11T06:28:56.235Z,1.80
2022-12-11T06:31:23.103Z,1.70
2022-12-11T06:33:50.069Z,1.80
2022-12-11T06:36:20.760Z,1.80
2022-12-11T06:38:49.184Z,1.70
2022-12-11T06:41:17.098Z,1.80
2022-12-11T06:43:44.077Z,1.70
2022-12-11T06:46:15.103Z,1.70
2022-12-11T06:48:43.040Z,1.70
2022-12-11T06:51:21.131Z,1.70
2022-12-11T06:53:54.140Z,1.60
2022-12-11T06:56:22.590Z,1.70
2022-12-11T06:58:51.973Z,1.70
2022-12-11T07:01:26.388Z,1.70
2022-12-11T07:03:54.668Z,1.70
2022-12-11T07:06:22.489Z,1.70
2022-12-11T07:08:49.774Z,1.70
2022-12-11T07:11:18.169Z,1.60
2022-12-11T07:13:45.149Z,1.60
2022-12-11T07:16:14.216Z,1.60
2022-12-11T07:18:52.128Z,1.60
2022-12-11T07:21:23.437Z,1.60
2022-12-11T07:23:50.654Z,1.60
2022-12-11T07:26:20.287Z,1.60
2022-12-11T07:28:47.479Z,1.60
2022-12-11T07:31:20.869Z,1.60
2022-12-11T07:33:53.206Z,1.60
2022-12-11T07:36:20.036Z,1.60
2022-12-11T07:38:46.884Z,1.70
2022-12-11T07:41:15.012Z,1.70
2022-12-11T07:43:42.810Z,1.60
2022-12-11T07:46:16.201Z,1.70
2022-12-11T07:48:45.590Z,1.60
2022-12-11T07:51:26.629Z,1.60
2022-12-11T07:53:56.074Z,1.60
2022-12-11T07:56:26.791Z,1.60
2022-12-11T07:58:53.854Z,1.60
2022-12-11T08:01:24.538Z,1.60
2022-12-11T08:03:51.897Z,1.60
2022-12-11T08:06:21.419Z,1.70
2022-12-11T08:08:50.913Z,1.60
2022-12-11T08:11:19.146Z,1.60
2022-12-11T08:13:48.990Z,1.60
2022-12-11T08:16:17.280Z,1.60
2022-12-11T08:18:47.407Z,1.60
2022-12-11T08:21:23.161Z,1.60
2022-12-11T08:23:51.478Z,1.60
2022-12-11T08:26:21.338Z,1.60
2022-12-11T08:28:48.127Z,1.60
2022-12-11T08:31:16.093Z,1.70
2022-12-11T08:33:43.447Z,1.70
2022-12-11T08:36:13.250Z,1.70
2022-12-11T08:38:40.726Z,1.70
2022-12-11T08:41:13.031Z,1.70
2022-12-11T08:43:41.981Z,1.70
2022-12-11T08:46:09.689Z,1.70
2022-12-11T08:48:38.188Z,1.70
2022-12-11T08:51:10.489Z,1.70
2022-12-11T08:53:38.993Z,1.70
2022-12-11T08:56:12.186Z,1.70
2022-12-11T08:58:40.153Z,1.70
2022-12-11T09:01:10.193Z,1.60
2022-12-11T09:03:37.506Z,1.70
2022-12-11T09:06:09.416Z,1.70
2022-12-11T09:08:36.482Z,1.70
2022-12-11T09:11:25.817Z,1.80
2022-12-11T09:13:53.193Z,1.80
2022-12-11T09:16:22.279Z,1.80
2022-12-11T09:18:52.378Z,1.80
2022-12-11T09:21:22.215Z,1.90
2022-12-11T09:23:49.835Z,1.90
2022-12-11T09:26:20.161Z,1.90
2022-12-11T09:28:47.507Z,1.90
2022-12-11T09:31:26.725Z,2.00
2022-12-11T09:34:02.479Z,2.00
2022-12-11T09:36:29.949Z,2.00
2022-12-11T09:39:01.795Z,2.10
2022-12-11T09:41:59.350Z,2.10
2022-12-11T09:44:54.747Z,2.10
2022-12-11T09:47:51.206Z,2.20
2022-12-11T09:50:32.770Z,2.20
2022-12-11T09:53:21.502Z,2.30
2022-12-11T09:56:07.101Z,2.30
2022-12-11T09:58:39.703Z,2.30
2022-12-11T10:01:29.222Z,2.30
2022-12-11T10:04:11.628Z,2.30
2022-12-11T10:06:47.890Z,2.30
2022-12-11T10:09:30.117Z,2.30
2022-12-11T10:12:28.835Z,2.30
2022-12-11T10:15:23.567Z,2.40
2022-12-11T10:17:53.902Z,2.40
2022-12-11T10:20:33.530Z,2.40
2022-12-11T10:23:02.828Z,2.50
2022-12-11T10:25:41.986Z,2.50
2022-12-11T10:28:28.820Z,2.50
2022-12-11T10:31:01.842Z,2.50
2022-12-11T10:33:37.663Z,2.50
2022-12-11T10:36:07.908Z,2.60
2022-12-11T10:38:41.452Z,2.60
2022-12-11T10:41:11.365Z,2.60
2022-12-11T10:43:46.611Z,2.60
2022-12-11T10:46:28.796Z,2.60
2022-12-11T10:48:58.749Z,2.60
2022-12-11T10:51:37.909Z,2.60
2022-12-11T10:54:15.643Z,2.70
2022-12-11T10:56:47.278Z,2.70
2022-12-11T10:59:24.451Z,2.80
2022-12-11T11:01:52.003Z,2.70
2022-12-11T11:04:37.371Z,2.70
2022-12-11T11:07:24.125Z,2.80
2022-12-11T11:10:02.763Z,2.80
2022-12-11T11:12:29.815Z,2.80
2022-12-11T11:15:01.206Z,2.80
2022-12-11T11:17:34.476Z,2.80
2022-12-11T11:20:12.116Z,2.90
2022-12-11T11:22:50.097Z,2.90
2022-12-11T11:25:38.952Z,2.90
2022-12-11T11:28:15.666Z,2.90
2022-12-11T11:30:56.144Z,2.90
2022-12-11T11:33:25.523Z,2.90
2022-12-11T11:36:02.499Z,2.90
2022-12-11T11:38:37.763Z,2.90
2022-12-11T11:41:17.651Z,2.90
2022-12-11T11:44:15.568Z,2.90
2022-12-11T11:47:05.173Z,3.00
2022-12-11T11:49:58.428Z,3.00
2022-12-11T11:52:29.762Z,3.00
2022-12-11T11:55:10.608Z,3.00
2022-12-11T11:58:01.088Z,3.10
2022-12-11T12:00:35.043Z,3.10
2022-12-11T12:03:09.650Z,3.10
2022-12-11T12:06:10.934Z,3.20
2022-12-11T12:08:58.049Z,3.20
2022-12-11T12:11:43.006Z,3.20
2022-12-11T12:14:52.197Z,3.10
2022-12-11T12:17:56.167Z,3.10
2022-12-11T12:20:31.113Z,3.10
2022-12-11T12:23:06.778Z,3.10
2022-12-11T12:25:39.863Z,3.10
2022-12-11T12:28:21.898Z,3.10
2022-12-11T12:31:01.222Z,3.10
2022-12-11T12:33:54.274Z,3.20
2022-12-11T12:36:36.182Z,3.20
2022-12-11T12:39:26.085Z,3.20
2022-12-11T12:42:25.702Z,3.20
2022-12-11T12:45:00.701Z,3.20
2022-12-11T12:47:33.006Z,3.10
2022-12-11T12:50:01.533Z,3.10
2022-12-11T12:52:37.779Z,3.10
2022-12-11T12:55:14.304Z,3.10
2022-12-11T12:57:54.666Z,3.10
2022-12-11T13:00:36.156Z,3.10
2022-12-11T13:03:13.561Z,3.10
2022-12-11T13:05:45.069Z,3.10
2022-12-11T13:08:12.991Z,3.10
2022-12-11T13:10:43.229Z,3.20
2022-12-11T13:13:38.526Z,3.20
2022-12-11T13:16:18.642Z,3.20
2022-12-11T13:18:49.978Z,3.10
2022-12-11T13:21:26.777Z,3.20
2022-12-11T13:23:54.952Z,3.40
2022-12-11T13:26:33.665Z,3.40
2022-12-11T13:29:01.109Z,3.40
2022-12-11T13:31:40.499Z,3.50
2022-12-11T13:34:24.040Z,3.40
2022-12-11T13:36:55.110Z,3.40
2022-12-11T13:39:28.303Z,3.40
2022-12-11T13:42:03.245Z,3.40
2022-12-11T13:44:35.144Z,3.30
2022-12-11T13:47:04.471Z,3.20
2022-12-11T13:49:38.846Z,3.20
2022-12-11T13:52:06.419Z,3.10
2022-12-11T13:54:38.900Z,3.10
2022-12-11T13:57:10.513Z,3.10
2022-12-11T13:59:43.483Z,3.00
2022-12-11T14:02:29.423Z,3.00
2022-12-11T14:05:16.924Z,3.00
2022-12-11T14:07:52.847Z,2.90
2022-12-11T14:10:32.169Z,2.90
2022-12-11T14:13:31.508Z,2.90
2022-12-11T14:15:59.509Z,2.90
2022-12-11T14:18:34.319Z,2.80
2022-12-11T14:21:07.549Z,2.80
2022-12-11T14:23:37.795Z,2.80
2022-12-11T14:26:17.843Z,2.80
2022-12-11T14:28:44.879Z,2.80
2022-12-11T14:31:17.592Z,2.70
2022-12-11T14:34:07.258Z,2.70
2022-12-11T14:36:37.419Z,2.70
2022-12-11T14:39:10.600Z,2.70
2022-12-11T14:41:48.413Z,2.60
2022-12-11T14:44:20.743Z,2.60
2022-12-11T14:46:54.876Z,2.60
2022-12-11T14:49:25.090Z,2.60
2022-12-11T14:51:55.541Z,2.60
2022-12-11T14:54:39.694Z,2.60
2022-12-11T14:57:11.370Z,2.50
2022-12-11T14:59:47.817Z,2.50
2022-12-11T15:02:34.120Z,2.50
2022-12-11T15:05:18.365Z,2.50
2022-12-11T15:07:56.088Z,2.50
2022-12-11T15:10:56.752Z,2.40
2022-12-11T15:13:24.659Z,2.40
2022-12-11T15:15:56.589Z,2.40
2022-12-11T15:18:28.722Z,2.40
2022-12-11T15:20:59.944Z,2.50
2022-12-11T15:23:28.043Z,2.40
2022-12-11T15:25:59.369Z,2.40
2022-12-11T15:28:37.704Z,2.40
2022-12-11T15:31:28.093Z,2.40
2022-12-11T15:33:55.701Z,2.40
2022-12-11T15:36:30.426Z,2.30
2022-12-11T15:38:58.181Z,2.30
2022-12-11T15:41:28.720Z,2.30
2022-12-11T15:43:59.426Z,2.30
2022-12-11T15:46:28.229Z,2.30
2022-12-11T15:48:57.284Z,2.30
2022-12-11T15:51:27.644Z,2.30
2022-12-11T15:53:55.473Z,2.30
2022-12-11T15:56:22.929Z,2.20
2022-12-11T15:58:50.103Z,2.20
2022-12-11T16:01:18.114Z,2.20
2022-12-11T16:03:46.261Z,2.20
2022-12-11T16:06:14.145Z,2.20
2022-12-11T16:08:42.446Z,2.20
2022-12-11T16:11:13.264Z,2.20
2022-12-11T16:13:40.420Z,2.30
2022-12-11T16:16:08.950Z,2.30
2022-12-11T16:18:36.328Z,2.20
2022-12-11T16:21:06.456Z,2.20
2022-12-11T16:23:34.859Z,2.20
2022-12-11T16:26:06.972Z,2.20
2022-12-11T16:28:35.281Z,2.20
2022-12-11T16:31:03.888Z,2.20
2022-12-11T16:33:31.323Z,2.20
2022-12-11T16:35:59.235Z,2.20
2022-12-11T16:38:26.528Z,2.20
2022-12-11T16:41:01.228Z,2.20
2022-12-11T16:43:28.324Z,2.20
2022-12-11T16:45:56.001Z,2.20
2022-12-11T16:48:22.986Z,2.20
2022-12-11T16:50:52.431Z,2.20
2022-12-11T16:53:19.323Z,2.20
2022-12-11T16:55:46.155Z,2.20
2022-12-11T16:59:06.672Z,2.20
2022-12-11T17:01:15.185Z,2.20
2022-12-11T17:03:43.847Z,2.20
2022-12-11T17:06:14.148Z,2.20
2022-12-11T17:08:42.701Z,2.20
2022-12-11T17:11:13.135Z,2.20
2022-12-11T17:13:40.543Z,2.20
2022-12-11T17:16:11.149Z,2.10
2022-12-11T17:18:38.727Z,2.10
2022-12-11T17:21:07.644Z,2.10
2022-12-11T17:23:34.690Z,2.10
2022-12-11T17:26:02.734Z,2.10
2022-12-11T17:28:30.471Z,2.20
2022-12-11T17:30:57.499Z,2.10
2022-12-11T17:33:24.735Z,2.10
2022-12-11T17:35:51.591Z,2.10
2022-12-11T17:38:18.703Z,2.20
2022-12-11T17:40:47.726Z,2.20
2022-12-11T17:43:14.777Z,2.20
2022-12-11T17:45:47.282Z,2.20
2022-12-11T17:48:16.976Z,2.20
2022-12-11T17:50:46.682Z,2.20
2022-12-11T17:53:16.013Z,2.20
2022-12-11T17:55:44.702Z,2.10
2022-12-11T17:58:22.877Z,2.10
2022-12-11T18:00:53.202Z,2.10
2022-12-11T18:03:21.023Z,2.10
2022-12-11T18:05:53.677Z,2.20
2022-12-11T18:08:30.067Z,2.10
2022-12-11T18:11:03.628Z,2.10
2022-12-11T18:13:32.766Z,2.10
2022-12-11T18:16:01.734Z,2.10
2022-12-11T18:18:29.033Z,2.00
2022-12-11T18:20:55.805Z,2.00
2022-12-11T18:23:23.484Z,2.00
2022-12-11T18:25:50.303Z,2.00
2022-12-11T18:28:17.441Z,2.00
2022-12-11T18:30:44.828Z,2.00
2022-12-11T18:33:13.077Z,2.00
2022-12-11T18:35:41.439Z,2.00
2022-12-11T18:38:08.366Z,2.00
2022-12-11T18:40:35.186Z,2.00
2022-12-11T18:43:02.033Z,2.00
2022-12-11T18:45:28.999Z,2.00
2022-12-11T18:47:56.596Z,2.00
2022-12-11T18:50:23.423Z,2.00
2022-12-11T18:52:54.301Z,2.00
2022-12-11T18:55:23.194Z,1.90
2022-12-11T18:57:50.067Z,1.90
2022-12-11T19:00:17.623Z,1.90
2022-12-11T19:02:44.953Z,1.90
2022-12-11T19:05:12.875Z,1.90
2022-12-11T19:07:40.150Z,1.90
2022-12-11T19:10:07.977Z,1.90
2022-12-11T19:12:34.796Z,1.90
2022-12-11T19:15:01.707Z,1.90
2022-12-11T19:17:28.961Z,1.90
2022-12-11T19:19:56.023Z,1.90
2022-12-11T19:22:23.088Z,1.90
2022-12-11T19:24:50.014Z,1.90
2022-12-11T19:27:16.893Z,1.90
2022-12-11T19:29:43.896Z,1.90
2022-12-11T19:32:10.814Z,1.90
2022-12-11T19:34:39.103Z,1.80
2022-12-11T19:37:05.965Z,1.80
2022-12-11T19:39:33.073Z,1.80
2022-12-11T19:42:00.083Z,1.80
2022-12-11T19:44:27.248Z,1.80
2022-12-11T19:46:55.260Z,1.80
2022-12-11T19:49:22.668Z,1.70
2022-12-11T19:51:49.725Z,1.70
2022-12-11T19:54:18.036Z,1.70
2022-12-11T19:56:47.800Z,1.70
2022-12-11T19:59:16.867Z,1.70
2022-12-11T20:01:46.832Z,1.70
2022-12-11T20:04:20.678Z,1.70
2022-12-11T20:06:48.025Z,1.70
2022-12-11T20:09:15.505Z,1.70
2022-12-11T20:11:44.198Z,1.70
2022-12-11T20:14:18.897Z,1.60
2022-12-11T20:17:10.202Z,1.60
2022-12-11T20:19:33.219Z,1.70
2022-12-11T20:22:00.085Z,1.60
2022-12-11T20:24:26.943Z,1.70
2022-12-11T20:26:54.502Z,1.70
2022-12-11T20:29:21.320Z,1.70
2022-12-11T20:31:51.037Z,1.70
2022-12-11T20:34:18.183Z,1.70
2022-12-11T20:36:46.663Z,1.60
2022-12-11T20:39:13.525Z,1.60
2022-12-11T20:41:40.660Z,1.60
2022-12-11T20:44:07.591Z,1.60
2022-12-11T20:46:35.345Z,1.60
2022-12-11T20:49:03.394Z,1.60
2022-12-11T20:51:32.321Z,1.60
2022-12-11T20:53:59.737Z,1.60
2022-12-11T20:56:30.120Z,1.60
2022-12-11T20:58:58.775Z,1.50
2022-12-11T21:01:29.371Z,1.60
2022-12-11T21:03:56.752Z,1.50
2022-12-11T21:06:32.967Z,1.60
2022-12-11T21:09:01.951Z,1.50
2022-12-11T21:11:29.411Z,1.60
2022-12-11T21:13:56.345Z,1.50
2022-12-11T21:16:24.343Z,1.50
2022-12-11T21:18:52.086Z,1.50
2022-12-11T21:21:19.250Z,1.60
2022-12-11T21:23:46.244Z,1.70
2022-12-11T21:26:13.940Z,1.60
2022-12-11T21:28:40.986Z,1.60
2022-12-11T21:31:11.370Z,1.60
2022-12-11T21:33:38.612Z,1.60
2022-12-11T21:36:07.986Z,1.60
2022-12-11T21:38:34.781Z,1.60
2022-12-11T21:41:17.012Z,1.60
2022-12-11T21:44:56.557Z,1.60
2022-12-11T21:46:33.744Z,1.50
2022-12-11T21:49:00.754Z,1.50
2022-12-11T21:51:37.094Z,1.50
2022-12-11T21:54:07.484Z,1.50
2022-12-11T21:56:34.430Z,1.50
2022-12-11T21:59:04.302Z,1.50
2022-12-11T22:01:37.405Z,1.50
2022-12-11T22:04:05.331Z,1.40
2022-12-11T22:06:34.074Z,1.40
2022-12-11T22:09:01.145Z,1.40
2022-12-11T22:11:31.720Z,1.40
2022-12-11T22:13:58.843Z,1.40
2022-12-11T22:16:25.785Z,1.40
2022-12-11T22:18:52.748Z,1.50
2022-12-11T22:21:19.933Z,1.40
2022-12-11T22:23:47.374Z,1.40
2022-12-11T22:26:23.178Z,1.40
2022-12-11T22:28:50.815Z,1.40
2022-12-11T22:31:20.700Z,1.40
2022-12-11T22:33:49.999Z,1.40
2022-12-11T22:36:20.033Z,1.40
2022-12-11T22:38:47.584Z,1.40
2022-12-11T22:41:28.486Z,1.40
2022-12-11T22:43:56.192Z,1.30
2022-12-11T22:46:26.197Z,1.40
2022-12-11T22:48:53.896Z,1.30
2022-12-11T22:51:21.197Z,1.40
2022-12-11T22:53:48.419Z,1.30
2022-12-11T22:56:15.356Z,1.30
2022-12-11T22:58:42.373Z,1.30
2022-12-11T23:01:15.157Z,1.30
2022-12-11T23:03:42.700Z,1.30
2022-12-11T23:06:12.917Z,1.30
2022-12-11T23:08:40.721Z,1.30
2022-12-11T23:11:16.656Z,1.30
2022-12-11T23:13:44.173Z,1.30
2022-12-11T23:16:11.925Z,1.30
2022-12-11T23:18:39.434Z,1.30
2022-12-11T23:21:06.665Z,1.30
2022-12-11T23:23:33.573Z,1.30
2022-12-11T23:26:00.719Z,1.30
2022-12-11T23:28:27.547Z,1.20
2022-12-11T23:30:55.165Z,1.20
2022-12-11T23:33:22.394Z,1.20
2022-12-11T23:35:49.490Z,1.20
2022-12-11T23:38:17.144Z,1.20
2022-12-11T23:40:44.211Z,1.30
2022-12-11T23:43:11.140Z,1.30
2022-12-11T23:45:38.036Z,1.30
2022-12-11T23:48:04.831Z,1.30
2022-12-11T23:50:33.010Z,1.30
2022-12-11T23:53:00.334Z,1.30
2022-12-11T23:55:27.558Z,1.30
2022-12-11T23:57:54.561Z,1.30
